Time;durP1;ratioP1;P1;durP2;ratioP2;P2;SDS_P1;SDS_P2;PMS_P1;PMS_P2;Temp;Humidity;BMP_temperature;BMP_pressure;BME280_temperature;BME280_humidity;BME280_pressure;Samples;Min_cycle;Max_cycle;Signal;HPM_P1;HPM_P2
2023/08/21 00:02:18;;;;;;;;;;;;;;;19.71;76.44;102233.38;5082564;28;1072;-74
2023/08/21 00:04:44;;;;;;;;;;;;;;;19.69;76.76;102230.09;5067296;28;1335;-74
2023/08/21 00:07:10;;;;;;;;;;;;;;;19.66;76.82;102230.38;5067684;28;1310;-74
2023/08/21 00:09:35;;;;;;;;;;;;;;;19.62;77.08;102235.13;5071397;28;1224;-74
2023/08/21 00:12:00;;;;;;;;;;;;;;;19.56;77.47;102231.25;5056090;28;1176;-75
2023/08/21 00:14:26;;;;;;;;;;;;;;;19.54;77.68;102235.81;5068650;28;1209;-75
2023/08/21 00:16:51;;;;;;;;;;;;;;;19.56;77.88;102231.25;5067679;28;1918;-74
2023/08/21 00:19:16;;;;;;;;;;;;;;;19.57;77.74;102237.34;5068991;28;1303;-74
2023/08/21 00:21:42;;;;;;;;;;;;;;;19.54;77.47;102233.19;5079351;28;1244;-74
2023/08/21 00:24:07;;;;;;;;;;;;;;;19.50;77.55;102239.75;5073111;28;1201;-74
2023/08/21 00:26:32;;;;;;;;;;;;;;;19.45;78.12;102234.09;5074162;28;1106;-74
2023/08/21 00:28:57;;;;;;;;;;;;;;;19.41;78.09;102238.00;5056154;28;1146;-74
2023/08/21 00:31:23;;;;;;;;;;;;;;;19.38;78.60;102233.03;5073160;28;1314;-74
2023/08/21 00:33:48;;;;;;;;;;;;;;;19.36;78.50;102234.97;5068856;28;1541;-74
2023/08/21 00:36:13;;;;;;;;;;;;;;;19.34;78.51;102236.94;5047032;28;1902;-73
2023/08/21 00:38:38;;;;;;;;;;;;;;;19.33;78.49;102230.03;5065872;28;1574;-73
2023/08/21 00:41:03;;;;;;;;;;;;;;;19.29;78.65;102226.03;5052687;28;1537;-73
2023/08/21 00:43:29;;;;;;;;;;;;;;;19.20;78.76;102229.53;5073166;28;1211;-73
2023/08/21 00:45:54;;;;;;;;;;;;;;;19.16;79.07;102233.47;5064355;28;1082;-74
2023/08/21 00:48:19;;;;;;;;;;;;;;;19.15;79.43;102226.53;5046694;28;1370;-73
2023/08/21 00:50:45;;;;;;;;;;;;;;;19.17;79.20;102224.59;5053057;28;1222;-74
2023/08/21 00:53:10;;;;;;;;;;;;;;;19.17;79.48;102214.06;5069917;28;1217;-74
2023/08/21 00:55:35;;;;;;;;;;;;;;;19.14;79.29;102222.25;5066470;28;1909;-74
2023/08/21 00:58:02;;;;;;;;;;;;;;;19.10;78.95;102219.91;5067094;28;1252;-75
2023/08/21 01:00:28;;;;;;;;;;;;;;;19.04;79.21;102220.50;5066459;28;1240;-74
2023/08/21 01:02:53;;;;;;;;;;;;;;;18.98;79.23;102221.09;5066054;28;1617;-74
2023/08/21 01:05:22;;;;;;;;;;;;;;;18.94;79.77;102219.72;5057429;28;1120;-75
2023/08/21 01:07:53;;;;;;;;;;;;;;;18.96;80.17;102223.03;5071460;28;1232;-73
2023/08/21 01:10:34;;;;;;;;;;;;;;;18.96;80.16;102225.66;5059017;28;1330;-74
2023/08/21 01:13:09;;;;;;;;;;;;;;;18.93;80.67;102218.06;5049506;28;1276;-74
2023/08/21 01:15:36;;;;;;;;;;;;;;;18.92;81.00;102226.91;5063485;28;1951;-73
2023/08/21 01:18:02;;;;;;;;;;;;;;;18.92;81.15;102226.91;5074629;28;1177;-73
2023/08/21 01:20:28;;;;;;;;;;;;;;;18.94;81.50;102219.72;5065186;28;1617;-73
2023/08/21 01:22:53;;;;;;;;;;;;;;;18.95;81.12;102210.84;5071809;28;1096;-74
2023/08/21 01:25:18;;;;;;;;;;;;;;;18.96;81.12;102199.38;5055586;28;1234;-74
2023/08/21 01:27:45;;;;;;;;;;;;;;;18.96;81.14;102202.00;5069595;28;1270;-73
2023/08/21 01:30:10;;;;;;;;;;;;;;;18.92;81.06;102200.63;5061898;28;2005;-74
2023/08/21 01:32:35;;;;;;;;;;;;;;;18.87;81.36;102207.28;5075665;28;1038;-73
2023/08/21 01:35:01;;;;;;;;;;;;;;;18.85;81.52;102202.19;5071699;28;996;-73
2023/08/21 01:37:27;;;;;;;;;;;;;;;18.82;81.55;102215.63;5068588;28;1894;-73
2023/08/21 01:39:53;;;;;;;;;;;;;;;18.80;82.10;102207.03;5068617;28;1296;-74
2023/08/21 01:42:18;;;;;;;;;;;;;;;18.79;81.97;102215.91;5053192;28;1181;-74
2023/08/21 01:44:45;;;;;;;;;;;;;;;18.77;82.41;102217.88;5069355;28;1022;-73
2023/08/21 01:47:11;;;;;;;;;;;;;;;18.74;82.58;102207.63;5049752;28;1119;-74
2023/08/21 01:49:36;;;;;;;;;;;;;;;18.72;82.72;102220.91;5063275;28;1041;-74
2023/08/21 01:52:01;;;;;;;;;;;;;;;18.71;82.99;102218.44;5066540;28;1367;-74
2023/08/21 01:54:26;;;;;;;;;;;;;;;18.69;83.13;102215.13;5064508;28;1273;-74
2023/08/21 01:56:52;;;;;;;;;;;;;;;18.68;83.43;102219.53;5051030;28;1961;-74
2023/08/21 01:59:17;;;;;;;;;;;;;;;18.66;83.65;102215.38;5062566;28;1253;-74
2023/08/21 02:01:42;;;;;;;;;;;;;;;18.66;83.56;102215.38;5058287;28;1271;-74
2023/08/21 02:04:08;;;;;;;;;;;;;;;18.66;84.08;102220.66;5062219;28;1451;-74
2023/08/21 02:06:33;;;;;;;;;;;;;;;18.67;83.69;102222.28;5045961;28;1829;-73
2023/08/21 02:08:58;;;;;;;;;;;;;;;18.64;83.72;102217.31;5064289;28;1180;-74
2023/08/21 02:11:23;;;;;;;;;;;;;;;18.62;83.90;102217.47;5065246;28;1248;-73
2023/08/21 02:13:48;;;;;;;;;;;;;;;18.62;84.10;102224.53;5049711;28;1313;-74
2023/08/21 02:16:14;;;;;;;;;;;;;;;18.60;84.04;102219.41;5063363;28;1894;-74
2023/08/21 02:18:39;;;;;;;;;;;;;;;18.61;84.35;102225.50;5076004;28;1343;-73
2023/08/21 02:21:04;;;;;;;;;;;;;;;18.58;84.58;102219.56;5050243;28;1352;-74
2023/08/21 02:23:29;;;;;;;;;;;;;;;18.58;84.74;102219.56;5077385;28;1194;-74
2023/08/21 02:25:55;;;;;;;;;;;;;;;18.60;85.38;102210.72;5053158;28;1204;-74
2023/08/21 02:28:20;;;;;;;;;;;;;;;18.63;85.18;102215.66;5075160;28;1151;-73
2023/08/21 02:30:45;;;;;;;;;;;;;;;18.61;85.10;102217.63;5057665;28;1244;-73
2023/08/21 02:33:10;;;;;;;;;;;;;;;18.58;85.23;102218.75;5062510;28;1568;-73
2023/08/21 02:35:36;;;;;;;;;;;;;;;18.56;85.45;102215.41;5074917;28;1965;-73
2023/08/21 02:38:01;;;;;;;;;;;;;;;18.57;85.79;102227.56;5056809;28;1597;-73
2023/08/21 02:40:26;;;;;;;;;;;;;;;18.58;85.95;102219.56;5055569;28;1519;-74
2023/08/21 02:42:51;;;;;;;;;;;;;;;18.58;85.74;102219.56;5077711;28;1296;-74
2023/08/21 02:45:18;;;;;;;;;;;;;;;18.56;85.83;102224.13;5050805;28;1470;-74
2023/08/21 02:47:44;;;;;;;;;;;;;;;18.53;85.71;102216.53;5072747;28;1264;-74
2023/08/21 02:50:10;;;;;;;;;;;;;;;18.56;85.58;102215.41;5062114;28;1236;-75
2023/08/21 02:52:35;;;;;;;;;;;;;;;18.54;85.73;102223.44;5033610;28;1080245;-74
2023/08/21 02:55:00;;;;;;;;;;;;;;;18.54;86.00;102223.44;5073512;28;1152;-74
2023/08/21 02:57:26;;;;;;;;;;;;;;;18.54;86.34;102226.06;5056339;28;1906;-73
2023/08/21 02:59:51;;;;;;;;;;;;;;;18.52;86.24;102230.66;5055217;28;1335;-74
2023/08/21 03:02:17;;;;;;;;;;;;;;;18.52;86.31;102225.41;5054066;28;1245;-73
2023/08/21 03:04:42;;;;;;;;;;;;;;;18.50;86.55;102227.31;5067206;28;1288;-74
2023/08/21 03:07:07;;;;;;;;;;;;;;;18.50;86.81;102232.56;5053626;28;1418;-73
2023/08/21 03:09:33;;;;;;;;;;;;;;;18.51;86.93;102233.41;5070504;28;1193;-73
2023/08/21 03:11:58;;;;;;;;;;;;;;;18.46;86.70;102220.69;5068617;28;1318;-74
2023/08/21 03:14:24;;;;;;;;;;;;;;;18.48;86.98;102224.03;5059566;28;1177;-73
2023/08/21 03:16:49;;;;;;;;;;;;;;;18.46;87.20;102215.44;5060419;28;1966;-74
2023/08/21 03:19:14;;;;;;;;;;;;;;;18.47;87.03;102222.38;5070160;28;1321;-73
2023/08/21 03:21:40;;;;;;;;;;;;;;;18.46;86.88;102218.06;5068849;28;1350;-74
2023/08/21 03:24:05;;;;;;;;;;;;;;;18.43;86.97;102215.75;5059955;28;1148;-73
2023/08/21 03:26:31;;;;;;;;;;;;;;;18.41;87.12;102212.44;5083388;28;1428;-73
2023/08/21 03:28:56;;;;;;;;;;;;;;;18.38;87.07;102207.44;5072939;28;1330;-73
2023/08/21 03:31:21;;;;;;;;;;;;;;;18.35;87.14;102213.00;5081402;28;1283;-73
2023/08/21 03:33:46;;;;;;;;;;;;;;;18.30;87.20;102209.97;5055328;28;1496;-74
2023/08/21 03:36:12;;;;;;;;;;;;;;;18.28;87.49;102222.41;5077895;28;1963;-75
2023/08/21 03:38:37;;;;;;;;;;;;;;;18.26;87.47;102221.72;5083242;28;1446;-73
2023/08/21 03:41:02;;;;;;;;;;;;;;;18.24;87.65;102215.78;5068694;28;1178;-74
2023/08/21 03:43:27;;;;;;;;;;;;;;;18.25;87.82;102227.94;5075114;28;1276;-75
2023/08/21 03:45:52;;;;;;;;;;;;;;;18.26;87.85;102224.34;5066933;28;1283;-74
2023/08/21 03:48:18;;;;;;;;;;;;;;;18.26;87.84;102229.59;5072146;28;1286;-74
2023/08/21 03:50:43;;;;;;;;;;;;;;;18.24;87.94;102221.03;5065175;28;997;-74
2023/08/21 03:53:08;;;;;;;;;;;;;;;18.25;88.14;102222.69;5066558;28;1478;-73
2023/08/21 03:55:33;;;;;;;;;;;;;;;18.26;88.21;102221.72;5069019;28;1969;-74
2023/08/21 03:57:59;;;;;;;;;;;;;;;18.27;88.16;102218.94;5068472;28;1204;-74
2023/08/21 04:00:24;;;;;;;;;;;;;;;18.25;88.15;102218.28;5051500;28;1348;-73
2023/08/21 04:02:49;;;;;;;;;;;;;;;18.25;88.28;102212.19;5074557;28;1560;-74
2023/08/21 04:05:14;;;;;;;;;;;;;;;18.20;88.47;102214.41;5055717;28;1261;-74
2023/08/21 04:07:39;;;;;;;;;;;;;;;18.17;88.49;102215.50;5074156;28;1169;-73
2023/08/21 04:10:05;;;;;;;;;;;;;;;18.16;88.88;102220.91;5073363;28;1265;-74
2023/08/21 04:12:30;;;;;;;;;;;;;;;18.15;88.87;102219.25;5053932;28;1480;-73
2023/08/21 04:14:55;;;;;;;;;;;;;;;18.14;88.90;102220.22;5071688;28;1670;-74
2023/08/21 04:17:24;;;;;;;;;;;;;;;18.16;88.54;102213.03;5045120;28;1902;-74
2023/08/21 04:19:52;;;;;;;;;;;;;;;18.15;88.83;102221.88;5051444;28;1518;-73
2023/08/21 04:22:17;;;;;;;;;;;;;;;18.12;88.92;102222.16;5064500;28;1470;-74
2023/08/21 04:24:43;;;;;;;;;;;;;;;18.10;88.83;102226.72;5069020;28;1291;-74
2023/08/21 04:27:08;;;;;;;;;;;;;;;18.08;88.96;102220.78;5040481;28;1525;-74
2023/08/21 04:29:35;;;;;;;;;;;;;;;18.04;89.01;102225.47;5079740;28;1438;-73
2023/08/21 04:32:00;;;;;;;;;;;;;;;18.02;89.38;102225.63;5066707;28;1331;-73
2023/08/21 04:34:25;;;;;;;;;;;;;;;18.00;89.42;102224.91;5080799;28;1135;-74
2023/08/21 04:36:51;;;;;;;;;;;;;;;18.03;90.00;102229.91;5054074;28;1961;-73
2023/08/21 04:39:17;;;;;;;;;;;;;;;18.04;89.98;102220.22;5058046;28;2222;-73
2023/08/21 04:41:42;;;;;;;;;;;;;;;18.04;89.85;102226.31;5063713;28;1134;-74
2023/08/21 04:44:07;;;;;;;;;;;;;;;18.06;90.02;102228.78;5068595;28;1255;-74
2023/08/21 04:46:32;;;;;;;;;;;;;;;18.05;89.82;102227.13;5070247;28;1205;-74
2023/08/21 04:48:57;;;;;;;;;;;;;;;18.01;89.87;102231.84;5070105;28;1082;-74
2023/08/21 04:51:23;;;;;;;;;;;;;;;17.99;90.05;102227.69;5068880;28;1148;-74
2023/08/21 04:53:48;;;;;;;;;;;;;;;17.99;90.38;102230.31;5065605;28;1649;-73
2023/08/21 04:56:13;;;;;;;;;;;;;;;17.97;90.46;102233.09;5066184;28;1981;-75
2023/08/21 04:58:38;;;;;;;;;;;;;;;17.97;90.44;102227.00;5065807;28;1788;-74
2023/08/21 05:01:04;;;;;;;;;;;;;;;17.95;90.64;102237.66;5069733;28;1249;-73
2023/08/21 05:03:29;;;;;;;;;;;;;;;17.93;90.70;102247.44;5048219;28;1404;-73
2023/08/21 05:05:55;;;;;;;;;;;;;;;17.90;90.92;102245.13;5071201;28;1553;-73
2023/08/21 05:08:21;;;;;;;;;;;;;;;17.90;91.27;102255.63;5052987;28;1547;-74
2023/08/21 05:10:46;;;;;;;;;;;;;;;17.90;91.35;102254.78;5066839;28;1209;-74
2023/08/21 05:13:11;;;;;;;;;;;;;;;17.89;91.41;102248.72;5071764;28;1292;-74
2023/08/21 05:15:37;;;;;;;;;;;;;;;17.91;91.70;102252.03;5068820;28;1914;-74
2023/08/21 05:18:02;;;;;;;;;;;;;;;17.93;91.67;102250.06;5054356;28;1266;-74
2023/08/21 05:20:27;;;;;;;;;;;;;;;17.97;91.65;102256.72;5068220;28;1359;-73
2023/08/21 05:22:52;;;;;;;;;;;;;;;17.98;91.68;102253.13;5049644;28;1245;-73
2023/08/21 05:25:17;;;;;;;;;;;;;;;17.98;91.83;102253.13;5068594;28;1268;-73
2023/08/21 05:27:43;;;;;;;;;;;;;;;17.99;91.86;102253.94;5068565;28;1260;-73
2023/08/21 05:30:10;;;;;;;;;;;;;;;17.99;91.99;102254.78;5065271;28;1268;-73
2023/08/21 05:32:35;;;;;;;;;;;;;;;18.03;91.84;102256.16;5045558;28;2332;-73
2023/08/21 05:35:00;;;;;;;;;;;;;;;18.08;92.13;102262.81;5062587;28;1209;-73
2023/08/21 05:37:26;;;;;;;;;;;;;;;18.13;91.98;102255.34;5053952;28;1953;-73
2023/08/21 05:39:51;;;;;;;;;;;;;;;18.16;92.26;102262.91;5076079;28;1544;-73
2023/08/21 05:42:17;;;;;;;;;;;;;;;18.17;92.57;102262.78;5063986;28;1072;-73
2023/08/21 05:44:42;;;;;;;;;;;;;;;18.22;92.17;102262.34;5070731;28;1244;-73
2023/08/21 05:47:07;;;;;;;;;;;;;;;18.26;92.22;102261.13;5070345;28;1258;-73
2023/08/21 05:49:32;;;;;;;;;;;;;;;18.30;92.32;102265.13;5070153;28;1490;-75
2023/08/21 05:51:58;;;;;;;;;;;;;;;18.33;92.18;102262.19;5070970;28;1237;-73
2023/08/21 05:54:24;;;;;;;;;;;;;;;18.36;92.18;102267.19;5073568;28;1507;-73
2023/08/21 05:56:49;;;;;;;;;;;;;;;18.37;92.01;102268.84;5067089;28;1898;-73
2023/08/21 05:59:25;;;;;;;;;;;;;;;18.39;91.96;102266.91;5074660;28;1232;-73
2023/08/21 06:01:51;;;;;;;;;;;;;;;18.41;91.91;102272.84;5076851;28;1196;-73
2023/08/21 06:04:16;;;;;;;;;;;;;;;18.44;91.52;102275.19;5051886;28;1168;-73
2023/08/21 06:06:41;;;;;;;;;;;;;;;18.47;91.21;102272.28;5064849;28;1386;-73
2023/08/21 06:09:07;;;;;;;;;;;;;;;18.51;91.04;102275.44;5072384;28;1184;-73
2023/08/21 06:11:32;;;;;;;;;;;;;;;18.53;90.90;102274.34;5067461;28;1355;-73
2023/08/21 06:13:57;;;;;;;;;;;;;;;18.56;90.83;102279.31;5070515;28;1254;-73
2023/08/21 06:16:23;;;;;;;;;;;;;;;18.62;90.84;102282.34;5065896;28;1961;-73
2023/08/21 06:18:48;;;;;;;;;;;;;;;18.62;91.03;102277.09;5066500;28;1720;-73
2023/08/21 06:21:13;;;;;;;;;;;;;;;18.64;90.79;102285.63;5057750;28;1184;-73
2023/08/21 06:23:38;;;;;;;;;;;;;;;18.70;90.88;102282.50;5067410;28;1052;-73
2023/08/21 06:26:04;;;;;;;;;;;;;;;18.71;90.70;102282.34;5069834;28;1490;-72
2023/08/21 06:28:29;;;;;;;;;;;;;;;18.75;90.31;102288.13;5056739;28;1228;-73
2023/08/21 06:30:56;;;;;;;;;;;;;;;18.79;89.95;102285.09;5041689;28;1249;-73
2023/08/21 06:33:22;;;;;;;;;;;;;;;18.85;89.79;102278.41;5047069;28;1213;-73
2023/08/21 06:35:47;;;;;;;;;;;;;;;18.89;89.59;102279.78;5066139;28;2372;-73
2023/08/21 06:38:12;;;;;;;;;;;;;;;18.93;89.33;102286.44;5055861;28;1239;-74
2023/08/21 06:40:38;;;;;;;;;;;;;;;18.97;89.30;102282.53;5070488;28;1251;-74
2023/08/21 06:43:05;;;;;;;;;;;;;;;19.02;89.34;102284.72;5068039;28;1030;-74
2023/08/21 06:45:32;;;;;;;;;;;;;;;19.04;88.52;102283.63;5073402;28;1055;-73
2023/08/21 06:47:57;;;;;;;;;;;;;;;19.09;88.61;102291.88;5069277;28;1538;-73
2023/08/21 06:50:22;;;;;;;;;;;;;;;19.15;88.27;102294.91;5072162;28;1092;-74
2023/08/21 06:52:48;;;;;;;;;;;;;;;19.24;87.75;102294.03;5068918;28;1034;-73
2023/08/21 06:55:13;;;;;;;;;;;;;;;19.30;87.30;102288.19;5072754;28;1052;-73
2023/08/21 06:57:38;;;;;;;;;;;;;;;19.39;87.72;102287.31;5068498;28;1953;-74
2023/08/21 07:00:05;;;;;;;;;;;;;;;19.41;86.61;102284.53;5077518;28;1076;-74
2023/08/21 07:02:30;;;;;;;;;;;;;;;19.43;86.19;102291.28;5075299;28;1201;-74
2023/08/21 07:04:55;;;;;;;;;;;;;;;19.52;86.74;102290.44;5066908;28;1244;-75
2023/08/21 07:07:21;;;;;;;;;;;;;;;19.55;86.03;102292.75;5076007;28;1345;-75
2023/08/21 07:09:46;;;;;;;;;;;;;;;19.58;85.33;102292.50;5066281;28;1678;-76
2023/08/21 07:12:11;;;;;;;;;;;;;;;19.59;85.29;102288.88;5072816;28;1233;-76
2023/08/21 07:14:36;;;;;;;;;;;;;;;19.63;85.20;102292.88;5072402;28;1083;-75
2023/08/21 07:17:02;;;;;;;;;;;;;;;19.71;85.27;102296.56;5067289;28;1957;-76
2023/08/21 07:19:27;;;;;;;;;;;;;;;19.77;85.07;102295.97;5074504;28;1244;-75
2023/08/21 07:21:52;;;;;;;;;;;;;;;19.82;85.06;102293.72;5070924;28;1620;-76
2023/08/21 07:24:17;;;;;;;;;;;;;;;19.89;84.80;102300.84;5070757;28;1017;-75
2023/08/21 07:26:42;;;;;;;;;;;;;;;20.01;85.07;102293.56;5070502;28;1563;-75
2023/08/21 07:29:08;;;;;;;;;;;;;;;20.14;84.98;102294.00;5063445;28;1368;-74
2023/08/21 07:31:33;;;;;;;;;;;;;;;20.26;84.93;102299.88;5052674;28;1431;-74
2023/08/21 07:33:59;;;;;;;;;;;;;;;20.36;83.99;102299.78;5067456;28;1073;-74
2023/08/21 07:36:24;;;;;;;;;;;;;;;20.41;83.43;102300.13;5068556;28;1969;-75
2023/08/21 07:38:50;;;;;;;;;;;;;;;20.45;83.57;102295.38;5066022;28;1260;-75
2023/08/21 07:41:15;;;;;;;;;;;;;;;20.51;83.80;102295.63;5062735;28;1438;-75
2023/08/21 07:43:41;;;;;;;;;;;;;;;20.59;83.64;102300.97;5068961;28;983;-75
2023/08/21 07:46:07;;;;;;;;;;;;;;;20.65;83.13;102302.97;5073443;28;1447;-75
2023/08/21 07:48:32;;;;;;;;;;;;;;;20.69;82.39;102301.66;5079665;28;1256;-75
2023/08/21 07:50:58;;;;;;;;;;;;;;;20.74;82.37;102300.38;5077023;28;1291;-75
2023/08/21 07:53:24;;;;;;;;;;;;;;;20.79;82.38;102298.94;5083548;28;1126;-75
2023/08/21 07:55:49;;;;;;;;;;;;;;;20.88;81.01;102302.44;5074698;28;1890;-75
2023/08/21 07:58:14;;;;;;;;;;;;;;;20.93;80.37;102303.63;5077383;28;1697;-75
2023/08/21 08:00:40;;;;;;;;;;;;;;;20.98;79.42;102302.31;5070438;28;1278;-75
2023/08/21 08:03:08;;;;;;;;;;;;;;;21.01;80.00;102312.56;5082928;28;998;-74
2023/08/21 08:05:33;;;;;;;;;;;;;;;21.04;79.70;102307.78;5075686;28;1219;-75
2023/08/21 08:07:59;;;;;;;;;;;;;;;21.02;74.47;102315.03;5072272;28;1557;-75
2023/08/21 08:10:24;;;;;;;;;;;;;;;21.04;76.93;102315.69;5071286;28;1353;-75
2023/08/21 08:12:50;;;;;;;;;;;;;;;21.09;78.13;102323.97;5072752;28;1142;-75
2023/08/21 08:15:15;;;;;;;;;;;;;;;21.15;78.16;102315.44;5077039;28;1118;-74
2023/08/21 08:17:40;;;;;;;;;;;;;;;21.19;77.60;102316.78;5068225;28;1959;-75
2023/08/21 08:20:06;;;;;;;;;;;;;;;21.21;76.71;102314.78;5075663;28;1231;-76
2023/08/21 08:22:31;;;;;;;;;;;;;;;21.27;76.99;102312.50;5074747;28;1205;-75
2023/08/21 08:24:56;;;;;;;;;;;;;;;21.32;77.93;102310.25;5064798;28;1538;-75
2023/08/21 08:27:21;;;;;;;;;;;;;;;21.47;75.92;102313.94;5075267;28;1204;-75
2023/08/21 08:29:46;;;;;;;;;;;;;;;21.54;74.77;102312.31;5067818;28;1303;-75
2023/08/21 08:32:12;;;;;;;;;;;;;;;21.53;76.42;102313.28;5069750;28;1297;-75
2023/08/21 08:34:37;;;;;;;;;;;;;;;21.58;76.82;102318.91;5068941;28;1268;-75
2023/08/21 08:37:02;;;;;;;;;;;;;;;21.58;75.81;102318.91;5067974;28;1897;-75
2023/08/21 08:39:27;;;;;;;;;;;;;;;21.60;76.19;102313.47;5064248;28;1202;-75
2023/08/21 08:42:02;;;;;;;;;;;;;;;21.59;75.26;102320.56;5064848;28;1455;-75
2023/08/21 08:44:29;;;;;;;;;;;;;;;21.57;75.20;102322.56;5063256;28;1225;-75
2023/08/21 08:46:55;;;;;;;;;;;;;;;21.59;74.56;102317.94;5069502;28;1270;-75
2023/08/21 08:49:21;;;;;;;;;;;;;;;21.63;72.92;102318.44;5070073;28;1268;-75
2023/08/21 08:51:48;;;;;;;;;;;;;;;21.68;72.52;102316.97;5050487;28;2292;-75
2023/08/21 08:54:14;;;;;;;;;;;;;;;21.74;72.65;102321.59;5070041;28;1302;-75
2023/08/21 08:56:39;;;;;;;;;;;;;;;21.83;73.48;102324.25;5070489;28;1898;-74
2023/08/21 08:59:05;;;;;;;;;;;;;;;21.89;73.72;102328.88;5054270;28;1352;-74
2023/08/21 09:01:30;;;;;;;;;;;;;;;21.98;73.88;102317.34;5065921;28;1424;-75
2023/08/21 09:03:56;;;;;;;;;;;;;;;21.97;71.03;102331.53;5070993;28;1362;-75
2023/08/21 09:06:21;;;;;;;;;;;;;;;22.00;70.97;102320.63;5078822;28;1302;-75
2023/08/21 09:08:57;;;;;;;;;;;;;;;22.05;72.11;102318.31;5056159;28;1292;-75
2023/08/21 09:11:22;;;;;;;;;;;;;;;22.17;72.27;102316.22;5053435;28;1526;-74
2023/08/21 09:13:49;;;;;;;;;;;;;;;22.26;71.97;102326.63;5071683;28;1049;-74
2023/08/21 09:16:16;;;;;;;;;;;;;;;22.26;69.22;102315.22;5057471;28;1983;-74
2023/08/21 09:18:51;;;;;;;;;;;;;;;22.28;70.16;102318.53;5069063;28;1080;-75
2023/08/21 09:21:17;;;;;;;;;;;;;;;22.25;70.08;102302.97;5071855;28;1137;-74
2023/08/21 09:23:42;;;;;;;;;;;;;;;22.28;70.35;102302.66;5071874;28;1080;-74
2023/08/21 09:26:08;;;;;;;;;;;;;;;22.40;71.20;102314.56;5067340;28;1479;-75
2023/08/21 09:28:34;;;;;;;;;;;;;;;22.55;71.47;102314.72;5069352;28;1629;-75
2023/08/21 09:31:00;;;;;;;;;;;;;;;22.67;71.07;102308.06;5066441;28;1132;-75
2023/08/21 09:33:25;;;;;;;;;;;;;;;22.76;69.53;102317.63;5073414;28;1380;-75
2023/08/21 09:35:53;;;;;;;;;;;;;;;22.81;70.44;102317.13;5071187;28;1995;-75
2023/08/21 09:38:19;;;;;;;;;;;;;;;22.85;68.01;102314.97;5063404;28;1201;-75
2023/08/21 09:40:54;;;;;;;;;;;;;;;22.83;67.72;102317.78;5065686;28;1280;-75
2023/08/21 09:43:20;;;;;;;;;;;;;;;22.86;67.34;102316.63;5069460;28;1090;-75
2023/08/21 09:45:46;;;;;;;;;;;;;;;22.87;68.24;102315.63;5071690;28;1078;-74
2023/08/21 09:48:11;;;;;;;;;;;;;;;22.97;68.49;102313.63;5071283;28;1160;-75
2023/08/21 09:50:38;;;;;;;;;;;;;;;23.02;65.80;102316.59;5048835;28;1089;-75
2023/08/21 09:53:05;;;;;;;;;;;;;;;23.06;65.38;102317.91;5069660;28;1205;-75
2023/08/21 09:55:32;;;;;;;;;;;;;;;23.18;68.00;102308.59;5066446;28;1975;-75
2023/08/21 09:57:58;;;;;;;;;;;;;;;23.19;67.86;102312.06;5067736;28;1243;-75
2023/08/21 10:00:39;;;;;;;;;;;;;;;23.26;67.20;102308.56;5064039;28;1251;-74
2023/08/21 10:03:07;;;;;;;;;;;;;;;23.35;65.98;102300.59;5067733;28;1425;-75
2023/08/21 10:05:33;;;;;;;;;;;;;;;23.30;63.84;102299.28;5070995;28;1275;-76
2023/08/21 10:08:03;;;;;;;;;;;;;;;23.32;63.77;102297.25;5057812;28;1385;-75
2023/08/21 10:10:32;;;;;;;;;;;;;;;23.40;64.26;102295.56;5063338;28;1245;-75
2023/08/21 10:12:57;;;;;;;;;;;;;;;23.48;63.93;102300.84;5071847;28;1232;-75
2023/08/21 10:15:22;;;;;;;;;;;;;;;23.55;62.94;102293.84;5071948;28;1244;-75
2023/08/21 10:17:48;;;;;;;;;;;;;;;23.67;64.85;102295.09;5075036;28;1885;-75
2023/08/21 10:20:20;;;;;;;;;;;;;;;23.74;64.39;102296.06;5071388;28;1432;-75
2023/08/21 10:22:46;;;;;;;;;;;;;;;23.89;64.39;102297.94;5069535;28;1510;-75
2023/08/21 10:25:14;;;;;;;;;;;;;;;24.06;64.44;102294.16;5062606;28;1483;-75
2023/08/21 10:27:40;;;;;;;;;;;;;;;24.15;63.94;102298.41;5070484;28;1177;-75
2023/08/21 10:30:15;;;;;;;;;;;;;;;24.21;63.61;102296.88;5065276;28;1224;-75
2023/08/21 10:32:44;;;;;;;;;;;;;;;24.28;63.90;102281.88;5067112;28;1534;-75
2023/08/21 10:35:14;;;;;;;;;;;;;;;24.43;63.12;102284.56;5063947;28;1291;-75
2023/08/21 10:37:59;;;;;;;;;;;;;;;24.47;62.22;102285.84;5068804;28;1902;-75
2023/08/21 10:40:24;;;;;;;;;;;;;;;24.46;61.99;102289.53;5067587;28;1328;-77
2023/08/21 10:42:49;;;;;;;;;;;;;;;24.52;62.12;102294.91;5047636;28;1280;-75
2023/08/21 10:45:15;;;;;;;;;;;;;;;24.69;60.96;102290.25;5069102;28;1148;-76
2023/08/21 10:47:40;;;;;;;;;;;;;;;24.63;60.45;102285.69;5069615;28;1150;-75
2023/08/21 10:50:06;;;;;;;;;;;;;;;24.61;58.75;102293.03;5064259;28;1257;-75
2023/08/21 10:52:41;;;;;;;;;;;;;;;24.64;58.65;102292.63;5065716;28;1248;-76
2023/08/21 10:55:07;;;;;;;;;;;;;;;24.70;57.93;102299.88;5069142;28;1244;-76
2023/08/21 10:57:33;;;;;;;;;;;;;;;24.77;57.93;102303.44;5070235;28;1906;-77
2023/08/21 10:59:58;;;;;;;;;;;;;;;24.84;58.51;102304.38;5071724;28;1248;-75
2023/08/21 11:02:24;;;;;;;;;;;;;;;24.88;53.84;102305.63;5069225;28;1317;-76
2023/08/21 11:04:50;;;;;;;;;;;;;;;24.84;56.19;102299.06;5068520;28;1193;-76
2023/08/21 11:07:16;;;;;;;;;;;;;;;24.88;56.84;102297.66;5070453;28;1574;-75
2023/08/21 11:09:41;;;;;;;;;;;;;;;24.97;57.25;102295.75;5072895;28;1221;-77
2023/08/21 11:12:07;;;;;;;;;;;;;;;25.07;57.72;102292.84;5074700;28;1267;-76
2023/08/21 11:14:33;;;;;;;;;;;;;;;25.19;57.58;102291.34;5069478;28;1046;-76
2023/08/21 11:16:59;;;;;;;;;;;;;;;25.23;52.91;102284.66;5068234;28;1894;-76
2023/08/21 11:19:24;;;;;;;;;;;;;;;25.19;54.93;102286.03;5068178;28;1539;-76
2023/08/21 11:21:52;;;;;;;;;;;;;;;25.20;55.10;102282.38;5048762;28;1346;-75
2023/08/21 11:24:17;;;;;;;;;;;;;;;25.19;54.11;102278.09;5058351;28;1235;-75
2023/08/21 11:26:43;;;;;;;;;;;;;;;25.41;54.94;102285.06;5078509;28;1078;-75
2023/08/21 11:29:08;;;;;;;;;;;;;;;25.61;55.18;102289.75;5062469;28;1088;-76
2023/08/21 11:31:33;;;;;;;;;;;;;;;25.75;54.89;102283.63;5071105;28;1156;-76
2023/08/21 11:33:58;;;;;;;;;;;;;;;25.81;54.57;102280.19;5071795;28;1090;-77
2023/08/21 11:36:23;;;;;;;;;;;;;;;25.91;53.78;102288.66;5077234;28;1958;-75
2023/08/21 11:39:03;;;;;;;;;;;;;;;25.88;54.99;102270.44;5077425;28;1068;-75
2023/08/21 11:41:28;;;;;;;;;;;;;;;25.89;50.58;102274.72;5069023;28;1152;-75
2023/08/21 11:44:01;;;;;;;;;;;;;;;25.87;53.76;102278.59;5072736;28;1126;-76
2023/08/21 11:46:26;;;;;;;;;;;;;;;25.98;54.04;102274.59;5073307;28;1534;-75
2023/08/21 11:48:52;;;;;;;;;;;;;;;26.03;52.83;102273.00;5072643;28;1215;-75
2023/08/21 11:51:17;;;;;;;;;;;;;;;26.09;51.61;102276.72;5057528;28;1205;-75
2023/08/21 11:53:42;;;;;;;;;;;;;;;25.68;48.20;102275.53;5072443;28;1113;-75
2023/08/21 11:56:12;;;;;;;;;;;;;;;25.48;50.07;102279.00;5074065;28;2364;-75
2023/08/21 11:58:41;;;;;;;;;;;;;;;25.58;52.11;102274.22;5072114;28;1055;-75
2023/08/21 12:01:12;;;;;;;;;;;;;;;25.74;52.41;102268.66;5065615;28;1448;-75
2023/08/21 12:03:38;;;;;;;;;;;;;;;25.89;52.65;102265.94;5071714;28;1443;-75
2023/08/21 12:06:07;;;;;;;;;;;;;;;26.05;51.33;102270.97;5065344;28;1284;-74
2023/08/21 12:08:32;;;;;;;;;;;;;;;26.12;52.09;102266.53;5068096;28;1322;-75
2023/08/21 12:10:57;;;;;;;;;;;;;;;26.16;52.41;102264.31;5067635;28;1189;-75
2023/08/21 12:13:22;;;;;;;;;;;;;;;26.16;52.14;102261.66;5051045;28;1491;-75
2023/08/21 12:15:48;;;;;;;;;;;;;;;26.27;51.55;102269.09;5065503;28;1953;-75
2023/08/21 12:18:13;;;;;;;;;;;;;;;26.32;48.67;102271.16;5070240;28;1304;-76
2023/08/21 12:20:38;;;;;;;;;;;;;;;26.23;50.69;102267.84;5077252;28;1623;-75
2023/08/21 12:23:03;;;;;;;;;;;;;;;26.18;51.64;102265.75;5073465;28;1347;-75
2023/08/21 12:25:30;;;;;;;;;;;;;;;26.14;49.72;102263.66;5072862;28;1366;-75
2023/08/21 12:27:55;;;;;;;;;;;;;;;26.09;50.59;102255.44;5074332;28;1236;-77
2023/08/21 12:30:20;;;;;;;;;;;;;;;26.10;51.00;102251.81;5053990;28;2625;-76
2023/08/21 12:32:46;;;;;;;;;;;;;;;26.21;52.13;102248.59;5075893;28;1517;-75
2023/08/21 12:35:12;;;;;;;;;;;;;;;26.41;50.75;102244.25;5058518;28;1393;-76
2023/08/21 12:37:37;;;;;;;;;;;;;;;26.48;51.00;102250.44;5077385;28;1874;-76
2023/08/21 12:40:02;;;;;;;;;;;;;;;26.50;50.63;102257.41;5080269;28;1348;-77
2023/08/21 12:42:27;;;;;;;;;;;;;;;26.52;50.34;102245.53;5071659;28;1669;-76